Time;durP1;ratioP1;P1;durP2;ratioP2;P2;SDS_P1;SDS_P2;PMS_P1;PMS_P2;Temp;Humidity;BMP_temperature;BMP_pressure;BME280_temperature;BME280_humidity;BME280_pressure;Samples;Min_cycle;Max_cycle;Signal;HPM_P1;HPM_P2
2022/04/07 00:02:07;;;;;;;6.15;4.00;;;;;;;;;;5021433;28;20178;-68
2022/04/07 00:04:33;;;;;;;7.50;4.20;;;;;;;;;;5021671;28;20720;-68
2022/04/07 00:06:58;;;;;;;7.18;3.58;;;;;;;;;;5020743;28;20193;-68
2022/04/07 00:09:23;;;;;;;4.93;3.67;;;;;;;;;;5022950;28;20321;-68
2022/04/07 00:11:49;;;;;;;5.80;3.40;;;;;;;;;;5022762;28;20579;-67
2022/04/07 00:14:14;;;;;;;5.90;3.95;;;;;;;;;;5015193;28;20214;-68
2022/04/07 00:16:40;;;;;;;8.30;3.60;;;;;;;;;;5023157;28;20182;-68
2022/04/07 00:19:05;;;;;;;4.93;3.55;;;;;;;;;;5020276;28;20186;-68
2022/04/07 00:21:38;;;;;;;6.78;3.58;;;;;;;;;;5022299;28;20248;-68
2022/04/07 00:24:05;;;;;;;5.78;3.40;;;;;;;;;;5014859;28;20285;-69
2022/04/07 00:26:31;;;;;;;6.05;3.72;;;;;;;;;;5021420;28;20174;-68
2022/04/07 00:28:57;;;;;;;4.07;3.17;;;;;;;;;;5025204;28;20186;-68
2022/04/07 00:31:22;;;;;;;4.70;3.35;;;;;;;;;;5018619;28;20253;-68
2022/04/07 00:33:48;;;;;;;5.68;3.38;;;;;;;;;;5024272;28;20190;-68
2022/04/07 00:36:13;;;;;;;4.57;3.50;;;;;;;;;;5020202;28;20178;-68
2022/04/07 00:38:38;;;;;;;5.80;3.90;;;;;;;;;;5021401;28;20507;-70
2022/04/07 00:41:04;;;;;;;4.90;3.97;;;;;;;;;;5022703;28;20195;-73
2022/04/07 00:43:31;;;;;;;6.47;3.97;;;;;;;;;;5021403;28;20324;-72
2022/04/07 00:45:57;;;;;;;5.20;4.20;;;;;;;;;;5014727;28;20191;-71
2022/04/07 00:48:23;;;;;;;6.72;4.10;;;;;;;;;;5021826;28;20711;-71
2022/04/07 00:50:49;;;;;;;5.65;4.03;;;;;;;;;;5021976;28;20182;-71
2022/04/07 00:53:14;;;;;;;6.20;4.00;;;;;;;;;;5020042;28;20670;-70
2022/04/07 00:55:42;;;;;;;6.63;4.15;;;;;;;;;;5026493;28;20235;-70
2022/04/07 00:58:07;;;;;;;8.60;4.60;;;;;;;;;;5021389;28;20222;-70
2022/04/07 01:00:34;;;;;;;5.07;4.40;;;;;;;;;;5026314;28;20592;-69
2022/04/07 01:02:59;;;;;;;7.50;4.00;;;;;;;;;;5020550;28;20232;-69
2022/04/07 01:05:25;;;;;;;5.88;4.35;;;;;;;;;;5022214;28;20178;-70
2022/04/07 01:07:51;;;;;;;6.50;4.18;;;;;;;;;;5026755;28;20190;-71
2022/04/07 01:10:16;;;;;;;6.75;4.22;;;;;;;;;;5018439;28;20232;-70
2022/04/07 01:12:41;;;;;;;7.53;4.53;;;;;;;;;;5026470;28;20186;-69
2022/04/07 01:15:08;;;;;;;6.38;4.50;;;;;;;;;;5029234;28;20178;-69
2022/04/07 01:17:34;;;;;;;7.93;4.72;;;;;;;;;;5025201;28;20316;-70
2022/04/07 01:20:01;;;;;;;6.38;5.05;;;;;;;;;;5020010;28;20201;-67
2022/04/07 01:22:26;;;;;;;5.07;4.30;;;;;;;;;;5018403;28;20202;-70
2022/04/07 01:24:52;;;;;;;6.63;4.70;;;;;;;;;;5020616;28;20701;-69
2022/04/07 01:27:19;;;;;;;5.40;3.95;;;;;;;;;;5021381;28;20647;-69
2022/04/07 01:29:44;;;;;;;6.60;4.50;;;;;;;;;;5020384;28;20178;-70
2022/04/07 01:32:19;;;;;;;6.30;4.27;;;;;;;;;;5024286;28;20206;-69
2022/04/07 01:34:44;;;;;;;6.22;3.92;;;;;;;;;;5026845;28;20525;-69
2022/04/07 01:37:10;;;;;;;11.38;4.00;;;;;;;;;;5020076;28;20265;-69
2022/04/07 01:39:38;;;;;;;6.75;4.03;;;;;;;;;;5021175;28;20470;-69
2022/04/07 01:42:05;;;;;;;5.60;3.65;;;;;;;;;;5018382;28;20186;-69
2022/04/07 01:44:36;;;;;;;6.40;3.33;;;;;;;;;;5017694;28;20260;-69
2022/04/07 01:47:01;;;;;;;5.97;4.20;;;;;;;;;;5021399;28;20186;-68
2022/04/07 01:49:28;;;;;;;7.10;3.20;;;;;;;;;;5023706;28;20252;-68
2022/04/07 01:51:53;;;;;;;9.60;3.60;;;;;;;;;;5026405;28;20174;-68
2022/04/07 01:54:19;;;;;;;8.55;3.10;;;;;;;;;;5026063;28;20185;-69
2022/04/07 01:56:45;;;;;;;7.40;3.17;;;;;;;;;;5018641;28;20197;-67
2022/04/07 01:59:10;;;;;;;4.82;3.15;;;;;;;;;;5018203;28;20179;-69
2022/04/07 02:01:36;;;;;;;5.13;3.03;;;;;;;;;;5017478;28;20199;-69
2022/04/07 02:04:02;;;;;;;7.22;2.78;;;;;;;;;;5021597;28;20209;-69
2022/04/07 02:06:27;;;;;;;5.95;2.45;;;;;;;;;;5027927;28;20182;-69
2022/04/07 02:08:53;;;;;;;5.50;2.20;;;;;;;;;;5024708;28;20190;-69
2022/04/07 02:11:18;;;;;;;7.60;2.13;;;;;;;;;;5022168;28;20638;-68
2022/04/07 02:13:44;;;;;;;6.10;2.00;;;;;;;;;;5019792;28;20198;-69
2022/04/07 02:16:10;;;;;;;4.72;1.90;;;;;;;;;;5022345;28;20241;-70
2022/04/07 02:18:38;;;;;;;5.78;1.73;;;;;;;;;;5023950;28;20240;-70
2022/04/07 02:21:04;;;;;;;5.97;1.75;;;;;;;;;;5024072;28;20200;-69
2022/04/07 02:23:30;;;;;;;5.97;1.90;;;;;;;;;;5012302;28;20210;-70
2022/04/07 02:25:55;;;;;;;7.20;2.42;;;;;;;;;;5013590;28;20186;-71
2022/04/07 02:28:21;;;;;;;4.43;1.70;;;;;;;;;;5021007;28;20328;-70
2022/04/07 02:30:47;;;;;;;8.27;2.05;;;;;;;;;;5024814;28;20275;-70
2022/04/07 02:33:12;;;;;;;6.78;1.90;;;;;;;;;;5012600;28;20274;-70
2022/04/07 02:35:38;;;;;;;6.32;1.70;;;;;;;;;;5021989;28;20186;-72
2022/04/07 02:38:03;;;;;;;7.72;1.65;;;;;;;;;;5024956;28;20190;-73
2022/04/07 02:40:29;;;;;;;6.78;1.85;;;;;;;;;;5019143;28;20273;-74
2022/04/07 02:42:54;;;;;;;3.67;1.63;;;;;;;;;;5016725;28;20186;-72
2022/04/07 02:45:19;;;;;;;5.63;1.40;;;;;;;;;;5025898;28;20201;-71
2022/04/07 02:47:45;;;;;;;5.53;1.70;;;;;;;;;;5023125;28;20236;-71
2022/04/07 02:50:10;;;;;;;3.75;1.55;;;;;;;;;;5015860;28;20190;-71
2022/04/07 02:52:36;;;;;;;2.58;1.45;;;;;;;;;;5020416;28;20209;-70
2022/04/07 02:55:02;;;;;;;5.18;1.90;;;;;;;;;;5015282;28;20182;-70
2022/04/07 02:57:31;;;;;;;6.72;2.58;;;;;;;;;;5028008;28;20189;-72
2022/04/07 02:59:57;;;;;;;5.57;2.10;;;;;;;;;;5025286;28;20248;-70
2022/04/07 03:02:22;;;;;;;5.00;2.20;;;;;;;;;;5023139;28;20265;-70
2022/04/07 03:04:47;;;;;;;6.90;2.20;;;;;;;;;;5006754;28;20281;-69
2022/04/07 03:07:13;;;;;;;7.13;2.35;;;;;;;;;;5019150;28;20184;-70
2022/04/07 03:09:40;;;;;;;8.80;2.95;;;;;;;;;;5019537;28;20681;-69
2022/04/07 03:12:06;;;;;;;5.65;2.22;;;;;;;;;;5021136;28;20178;-69
2022/04/07 03:14:31;;;;;;;7.95;2.42;;;;;;;;;;5025172;28;20177;-67
2022/04/07 03:16:57;;;;;;;3.20;2.00;;;;;;;;;;5021922;28;20210;-69
2022/04/07 03:19:22;;;;;;;7.10;2.72;;;;;;;;;;5014651;28;20633;-70
2022/04/07 03:21:47;;;;;;;8.75;2.47;;;;;;;;;;5023598;28;20182;-69
2022/04/07 03:24:13;;;;;;;6.15;2.15;;;;;;;;;;5025695;28;20202;-68
2022/04/07 03:26:39;;;;;;;8.07;2.40;;;;;;;;;;5017984;28;20238;-69
2022/04/07 03:29:05;;;;;;;7.43;2.10;;;;;;;;;;5012002;28;20193;-69
2022/04/07 03:31:30;;;;;;;7.50;2.25;;;;;;;;;;5014847;28;20668;-68
2022/04/07 03:33:56;;;;;;;6.78;2.58;;;;;;;;;;5012173;28;20272;-69
2022/04/07 03:36:21;;;;;;;4.13;2.28;;;;;;;;;;5026031;28;20182;-69
2022/04/07 03:38:48;;;;;;;8.07;2.38;;;;;;;;;;5015311;28;20533;-68
2022/04/07 03:41:14;;;;;;;5.45;2.22;;;;;;;;;;5029112;28;20705;-71
2022/04/07 03:43:42;;;;;;;5.03;2.00;;;;;;;;;;5023612;28;20280;-68
2022/04/07 03:46:07;;;;;;;5.43;2.30;;;;;;;;;;5022040;28;20186;-68
2022/04/07 03:48:33;;;;;;;10.70;2.90;;;;;;;;;;5023183;28;20173;-69
2022/04/07 03:50:59;;;;;;;9.80;2.97;;;;;;;;;;5020808;28;20186;-68
2022/04/07 03:53:24;;;;;;;8.73;2.78;;;;;;;;;;5019971;28;20206;-68
2022/04/07 03:55:49;;;;;;;7.28;2.38;;;;;;;;;;5023896;28;20236;-69
2022/04/07 03:58:15;;;;;;;5.83;2.43;;;;;;;;;;5020441;28;20209;-68
2022/04/07 04:00:40;;;;;;;7.95;2.40;;;;;;;;;;5024320;28;20214;-68
2022/04/07 04:03:06;;;;;;;12.07;2.73;;;;;;;;;;5023586;28;20190;-69
2022/04/07 04:05:31;;;;;;;13.90;2.93;;;;;;;;;;5013996;28;20170;-69
2022/04/07 04:07:57;;;;;;;18.33;3.97;;;;;;;;;;5022115;28;20194;-68
2022/04/07 04:10:23;;;;;;;16.17;3.23;;;;;;;;;;5023358;28;20788;-68
2022/04/07 04:12:48;;;;;;;10.45;2.65;;;;;;;;;;5024814;28;20659;-68
2022/04/07 04:15:14;;;;;;;13.33;2.33;;;;;;;;;;5025578;28;20213;-68
2022/04/07 04:17:39;;;;;;;14.95;3.55;;;;;;;;;;5021561;28;20198;-69
2022/04/07 04:20:05;;;;;;;8.20;2.83;;;;;;;;;;5023277;28;20186;-69
2022/04/07 04:22:30;;;;;;;12.03;3.07;;;;;;;;;;5022455;28;20190;-69
2022/04/07 04:24:56;;;;;;;12.05;2.38;;;;;;;;;;5027909;28;20208;-68
2022/04/07 04:27:21;;;;;;;14.98;3.25;;;;;;;;;;5025078;28;20534;-68
2022/04/07 04:29:47;;;;;;;9.38;2.42;;;;;;;;;;5026305;28;20560;-68
2022/04/07 04:32:12;;;;;;;10.95;2.50;;;;;;;;;;5019743;28;20210;-68
2022/04/07 04:34:38;;;;;;;13.40;2.30;;;;;;;;;;5023375;28;20582;-68
2022/04/07 04:37:03;;;;;;;11.07;2.20;;;;;;;;;;5021598;28;20273;-68
2022/04/07 04:39:29;;;;;;;5.43;2.08;;;;;;;;;;5020060;28;20219;-68
2022/04/07 04:41:54;;;;;;;7.18;2.00;;;;;;;;;;5021624;28;20262;-69
2022/04/07 04:44:20;;;;;;;7.63;2.13;;;;;;;;;;5023248;28;20297;-69
2022/04/07 04:46:45;;;;;;;7.65;2.20;;;;;;;;;;5025246;28;20186;-71
2022/04/07 04:49:10;;;;;;;7.07;2.25;;;;;;;;;;5026963;28;20637;-68
2022/04/07 04:51:36;;;;;;;6.47;1.90;;;;;;;;;;5023868;28;20196;-68
2022/04/07 04:54:01;;;;;;;12.60;2.13;;;;;;;;;;5013532;28;20216;-68
2022/04/07 04:56:27;;;;;;;13.07;2.55;;;;;;;;;;5019707;28;20262;-69
2022/04/07 04:58:53;;;;;;;8.02;2.13;;;;;;;;;;5016962;28;20175;-69
2022/04/07 05:01:19;;;;;;;9.65;2.63;;;;;;;;;;5013426;28;20236;-69
2022/04/07 05:03:44;;;;;;;10.18;2.50;;;;;;;;;;5025645;28;20202;-69
2022/04/07 05:06:09;;;;;;;11.35;2.45;;;;;;;;;;5020753;28;20198;-69
2022/04/07 05:08:34;;;;;;;9.25;2.50;;;;;;;;;;5024430;28;20583;-70
2022/04/07 05:11:00;;;;;;;7.47;1.77;;;;;;;;;;5020059;28;20257;-68
2022/04/07 05:13:25;;;;;;;6.47;2.17;;;;;;;;;;5024653;28;20174;-68
2022/04/07 05:15:51;;;;;;;16.10;2.33;;;;;;;;;;5020297;28;20656;-68
2022/04/07 05:18:16;;;;;;;16.02;2.30;;;;;;;;;;5026466;28;20178;-68
2022/04/07 05:20:41;;;;;;;7.68;2.03;;;;;;;;;;5023727;28;20711;-68
2022/04/07 05:23:07;;;;;;;12.07;2.72;;;;;;;;;;5018755;28;20224;-68
2022/04/07 05:25:32;;;;;;;10.05;2.22;;;;;;;;;;5021102;28;20194;-68
2022/04/07 05:27:57;;;;;;;15.65;2.30;;;;;;;;;;5024528;28;20222;-68
2022/04/07 05:30:23;;;;;;;13.57;1.80;;;;;;;;;;5018278;28;20204;-70
2022/04/07 05:32:48;;;;;;;7.47;1.95;;;;;;;;;;5023882;28;20224;-70
2022/04/07 05:35:15;;;;;;;10.18;1.80;;;;;;;;;;5022480;28;20744;-69
2022/04/07 05:37:41;;;;;;;14.05;1.80;;;;;;;;;;5020887;28;20261;-69
2022/04/07 05:40:10;;;;;;;4.32;1.70;;;;;;;;;;5021833;28;20218;-69
2022/04/07 05:42:36;;;;;;;5.75;1.60;;;;;;;;;;5014733;28;20622;-69
2022/04/07 05:45:02;;;;;;;4.70;1.48;;;;;;;;;;5016811;28;20320;-68
2022/04/07 05:47:28;;;;;;;5.60;1.80;;;;;;;;;;5021464;28;20179;-68
2022/04/07 05:49:55;;;;;;;5.07;1.25;;;;;;;;;;5020838;28;20547;-68
2022/04/07 05:52:20;;;;;;;4.63;1.25;;;;;;;;;;5020875;28;20548;-69
2022/04/07 05:54:46;;;;;;;4.93;1.20;;;;;;;;;;5016680;28;20183;-68
2022/04/07 05:57:11;;;;;;;4.05;1.15;;;;;;;;;;5021746;28;20186;-68
2022/04/07 05:59:37;;;;;;;7.63;1.35;;;;;;;;;;5024135;28;20514;-68
2022/04/07 06:02:02;;;;;;;6.70;1.70;;;;;;;;;;5018482;28;20185;-69
2022/04/07 06:04:28;;;;;;;5.53;1.40;;;;;;;;;;5014060;28;20214;-72
2022/04/07 06:06:53;;;;;;;7.10;1.45;;;;;;;;;;5027795;28;20686;-69
2022/04/07 06:09:18;;;;;;;6.53;1.10;;;;;;;;;;4990411;28;1031605;-68
2022/04/07 06:11:44;;;;;;;6.13;1.10;;;;;;;;;;5027009;28;20529;-69
2022/04/07 06:14:09;;;;;;;6.93;1.40;;;;;;;;;;5019180;28;20192;-70
2022/04/07 06:16:34;;;;;;;5.75;1.30;;;;;;;;;;5017420;28;20197;-69
2022/04/07 06:19:00;;;;;;;5.20;1.10;;;;;;;;;;5017810;28;20227;-71
2022/04/07 06:21:29;;;;;;;2.53;1.48;;;;;;;;;;5020626;28;20293;-73
2022/04/07 06:23:55;;;;;;;7.90;1.67;;;;;;;;;;5022503;28;20633;-73
2022/04/07 06:26:20;;;;;;;3.55;1.45;;;;;;;;;;5013301;28;20178;-73
2022/04/07 06:28:45;;;;;;;3.50;1.58;;;;;;;;;;5024075;28;20187;-72
2022/04/07 06:31:11;;;;;;;9.48;1.67;;;;;;;;;;5021457;28;20202;-73
2022/04/07 06:33:36;;;;;;;3.17;1.33;;;;;;;;;;5022627;28;20175;-73
2022/04/07 06:36:03;;;;;;;9.05;1.83;;;;;;;;;;5028554;28;20174;-73
2022/04/07 06:38:30;;;;;;;5.18;2.08;;;;;;;;;;5023426;28;20240;-72
2022/04/07 06:40:56;;;;;;;8.90;2.10;;;;;;;;;;5023823;28;20213;-72
2022/04/07 06:43:22;;;;;;;3.13;1.65;;;;;;;;;;5019202;28;20506;-73
2022/04/07 06:45:48;;;;;;;4.65;1.60;;;;;;;;;;5024120;28;20660;-72
2022/04/07 06:48:13;;;;;;;4.18;1.70;;;;;;;;;;5027181;28;20224;-72
2022/04/07 06:50:38;;;;;;;5.07;1.60;;;;;;;;;;5025442;28;20224;-73
2022/04/07 06:53:04;;;;;;;3.58;1.00;;;;;;;;;;5022393;28;20217;-73
2022/04/07 06:55:29;;;;;;;0.85;0.20;;;;;;;;;;5026609;28;20587;-75
2022/04/07 06:58:03;;;;;;;4.00;0.27;;;;;;;;;;5027713;28;20216;-75
2022/04/07 07:00:34;;;;;;;3.27;0.37;;;;;;;;;;5020428;28;20642;-76
2022/04/07 07:03:01;;;;;;;1.70;0.20;;;;;;;;;;5026725;28;20613;-76
2022/04/07 07:05:29;;;;;;;3.20;0.30;;;;;;;;;;5021590;28;20300;-75
2022/04/07 07:07:55;;;;;;;2.90;0.50;;;;;;;;;;5022731;28;20549;-76
2022/04/07 07:10:25;;;;;;;1.73;0.30;;;;;;;;;;5016089;28;20322;-75
2022/04/07 07:12:52;;;;;;;2.17;0.33;;;;;;;;;;5024135;28;20369;-75
2022/04/07 07:15:17;;;;;;;2.43;0.30;;;;;;;;;;5012917;28;20244;-75
2022/04/07 07:17:43;;;;;;;2.73;0.40;;;;;;;;;;5018083;28;20186;-74
2022/04/07 07:20:10;;;;;;;3.33;0.40;;;;;;;;;;5013520;28;20222;-75
2022/04/07 07:22:37;;;;;;;2.53;0.30;;;;;;;;;;5024738;28;20182;-74
2022/04/07 07:25:03;;;;;;;1.73;0.30;;;;;;;;;;5014408;28;20634;-73
2022/04/07 07:27:38;;;;;;;1.60;0.20;;;;;;;;;;5013418;28;20653;-74
2022/04/07 07:30:08;;;;;;;1.20;0.40;;;;;;;;;;5026701;28;20185;-73
2022/04/07 07:32:33;;;;;;;2.13;0.50;;;;;;;;;;5024966;28;20663;-74
2022/04/07 07:34:59;;;;;;;2.40;0.40;;;;;;;;;;5026530;28;20188;-75
2022/04/07 07:37:24;;;;;;;3.33;0.40;;;;;;;;;;5025571;28;20551;-75
2022/04/07 07:39:50;;;;;;;2.20;0.40;;;;;;;;;;5026956;28;20204;-75
2022/04/07 07:42:16;;;;;;;2.30;0.50;;;;;;;;;;5022259;28;20223;-75
2022/04/07 07:44:41;;;;;;;1.90;0.40;;;;;;;;;;5024958;28;20233;-74
2022/04/07 07:47:06;;;;;;;3.10;0.60;;;;;;;;;;5027207;28;20194;-75
2022/04/07 07:49:32;;;;;;;2.10;0.50;;;;;;;;;;5023643;28;20244;-74
2022/04/07 07:51:57;;;;;;;1.20;0.47;;;;;;;;;;5027393;28;20194;-75
2022/04/07 07:54:22;;;;;;;1.37;0.50;;;;;;;;;;5025612;28;20210;-73
2022/04/07 07:56:48;;;;;;;2.80;0.40;;;;;;;;;;5025154;28;20653;-75
2022/04/07 07:59:13;;;;;;;3.70;0.73;;;;;;;;;;5027075;28;20186;-73
2022/04/07 08:01:38;;;;;;;4.17;0.97;;;;;;;;;;5026481;28;20243;-74
2022/04/07 08:04:04;;;;;;;1.97;0.43;;;;;;;;;;5024706;28;20210;-75
2022/04/07 08:06:29;;;;;;;2.13;0.63;;;;;;;;;;5019851;28;20557;-74
2022/04/07 08:08:55;;;;;;;2.20;0.60;;;;;;;;;;5025092;28;20193;-74
2022/04/07 08:11:20;;;;;;;2.00;0.60;;;;;;;;;;5021480;28;20194;-73
2022/04/07 08:13:45;;;;;;;1.47;0.50;;;;;;;;;;5006471;28;20183;-73
2022/04/07 08:16:11;;;;;;;2.23;0.50;;;;;;;;;;5019436;28;20194;-74
2022/04/07 08:18:36;;;;;;;4.10;0.70;;;;;;;;;;5024615;28;20182;-73
2022/04/07 08:21:01;;;;;;;3.73;1.40;;;;;;;;;;5013644;28;20318;-75
2022/04/07 08:23:27;;;;;;;2.90;0.40;;;;;;;;;;5026608;28;20218;-73
2022/04/07 08:25:52;;;;;;;3.07;0.63;;;;;;;;;;5010874;28;20236;-74
2022/04/07 08:28:18;;;;;;;3.60;0.50;;;;;;;;;;5014378;28;20193;-74
2022/04/07 08:30:43;;;;;;;3.07;0.40;;;;;;;;;;5022543;28;20244;-73
2022/04/07 08:33:08;;;;;;;1.53;0.50;;;;;;;;;;5022519;28;20186;-74
2022/04/07 08:35:34;;;;;;;1.00;0.30;;;;;;;;;;5012788;28;20273;-74
2022/04/07 08:37:59;;;;;;;1.70;0.30;;;;;;;;;;5018868;28;20186;-73
2022/04/07 08:40:25;;;;;;;3.93;0.30;;;;;;;;;;5026290;28;20559;-74
2022/04/07 08:42:50;;;;;;;0.93;0.27;;;;;;;;;;5023780;28;20194;-74
2022/04/07 08:45:16;;;;;;;1.70;0.47;;;;;;;;;;5022542;28;20211;-74
2022/04/07 08:47:42;;;;;;;0.73;0.37;;;;;;;;;;5013012;28;20179;-74
2022/04/07 08:50:08;;;;;;;3.13;0.50;;;;;;;;;;5023736;28;20201;-74
2022/04/07 08:52:35;;;;;;;4.00;0.53;;;;;;;;;;5026773;28;20182;-73
2022/04/07 08:55:01;;;;;;;2.93;0.53;;;;;;;;;;5025496;28;20187;-75
2022/04/07 08:57:29;;;;;;;2.90;0.40;;;;;;;;;;5027004;28;20284;-73
2022/04/07 08:59:55;;;;;;;4.13;0.50;;;;;;;;;;5027168;28;20197;-73
2022/04/07 09:02:20;;;;;;;2.57;0.57;;;;;;;;;;5020589;28;20190;-73
2022/04/07 09:04:46;;;;;;;1.70;0.40;;;;;;;;;;5025965;28;20840;-72
2022/04/07 09:07:12;;;;;;;1.50;0.30;;;;;;;;;;5026578;28;20193;-72
2022/04/07 09:09:38;;;;;;;1.50;0.30;;;;;;;;;;5027332;28;20226;-71
2022/04/07 09:12:04;;;;;;;1.47;0.43;;;;;;;;;;5030231;28;20599;-71
2022/04/07 09:14:37;;;;;;;2.10;0.40;;;;;;;;;;5029139;28;20185;-70
2022/04/07 09:17:03;;;;;;;1.00;0.33;;;;;;;;;;5017927;28;21572;-70
2022/04/07 09:19:35;;;;;;;1.13;0.57;;;;;;;;;;5028724;28;20186;-69
2022/04/07 09:22:09;;;;;;;1.47;0.37;;;;;;;;;;5028551;28;20260;-69
2022/04/07 09:24:39;;;;;;;2.17;0.40;;;;;;;;;;5029554;28;20198;-69
2022/04/07 09:27:06;;;;;;;1.43;0.47;;;;;;;;;;5025076;28;20185;-69
2022/04/07 09:29:46;;;;;;;0.67;0.20;;;;;;;;;;5027761;28;20189;-69
2022/04/07 09:32:23;;;;;;;3.03;0.67;;;;;;;;;;5028925;28;20206;-69
2022/04/07 09:35:06;;;;;;;4.43;0.40;;;;;;;;;;5023913;28;20256;-68
2022/04/07 09:37:32;;;;;;;3.30;0.60;;;;;;;;;;5021588;28;20637;-67
2022/04/07 09:40:17;;;;;;;8.93;0.70;;;;;;;;;;5029357;28;20347;-68
2022/04/07 09:42:43;;;;;;;6.77;0.60;;;;;;;;;;5026755;28;20204;-70
2022/04/07 09:45:13;;;;;;;2.53;0.70;;;;;;;;;;5024112;28;20658;-68
2022/04/07 09:47:43;;;;;;;5.15;0.70;;;;;;;;;;5013127;28;20175;-69
2022/04/07 09:50:23;;;;;;;2.85;0.63;;;;;;;;;;5029049;28;20194;-68
2022/04/07 09:53:05;;;;;;;3.10;0.60;;;;;;;;;;5026116;28;20174;-67
2022/04/07 09:55:36;;;;;;;5.47;1.00;;;;;;;;;;5019649;28;20546;-67
2022/04/07 09:58:03;;;;;;;4.10;0.70;;;;;;;;;;5026092;28;20655;-68
2022/04/07 10:00:29;;;;;;;7.43;0.80;;;;;;;;;;5025952;28;20272;-68
2022/04/07 10:02:55;;;;;;;4.30;0.85;;;;;;;;;;5027526;28;20269;-68
2022/04/07 10:05:22;;;;;;;3.33;0.77;;;;;;;;;;5025657;28;20194;-68
2022/04/07 10:07:49;;;;;;;2.22;0.98;;;;;;;;;;5027452;28;20182;-67
2022/04/07 10:10:14;;;;;;;6.55;0.65;;;;;;;;;;5024893;28;20218;-67
2022/04/07 10:12:40;;;;;;;4.53;0.80;;;;;;;;;;5028170;28;20178;-68
2022/04/07 10:15:06;;;;;;;5.45;0.80;;;;;;;;;;5026369;28;20193;-68
2022/04/07 10:17:33;;;;;;;3.58;0.82;;;;;;;;;;5026776;28;20595;-68
2022/04/07 10:20:01;;;;;;;2.25;0.98;;;;;;;;;;5025250;28;20193;-67
2022/04/07 10:22:45;;;;;;;6.00;0.80;;;;;;;;;;5022792;28;20252;-67
2022/04/07 10:25:12;;;;;;;6.93;0.90;;;;;;;;;;5021342;28;20206;-67
2022/04/07 10:27:48;;;;;;;5.53;1.17;;;;;;;;;;5015592;28;20178;-67
2022/04/07 10:30:16;;;;;;;3.15;0.80;;;;;;;;;;5023247;28;20182;-66
2022/04/07 10:32:54;;;;;;;4.72;1.02;;;;;;;;;;5023865;28;20182;-66
2022/04/07 10:35:29;;;;;;;4.55;1.00;;;;;;;;;;5018461;28;20649;-68
2022/04/07 10:37:59;;;;;;;3.17;0.75;;;;;;;;;;5022881;28;20182;-67
2022/04/07 10:40:44;;;;;;;7.75;1.05;;;;;;;;;;5018734;28;20253;-67
2022/04/07 10:43:17;;;;;;;7.13;1.35;;;;;;;;;;5022792;28;20354;-67
2022/04/07 10:45:48;;;;;;;9.25;1.42;;;;;;;;;;5021001;28;20639;-67
2022/04/07 10:48:19;;;;;;;4.80;1.00;;;;;;;;;;5024851;28;20178;-67
2022/04/07 10:50:48;;;;;;;4.85;0.82;;;;;;;;;;5023920;28;20661;-68
2022/04/07 10:53:22;;;;;;;5.13;1.10;;;;;;;;;;5024442;28;20380;-67
2022/04/07 10:56:12;;;;;;;3.85;1.00;;;;;;;;;;5016850;28;20210;-68
2022/04/07 10:59:08;;;;;;;5.63;0.98;;;;;;;;;;5026651;28;20190;-67
2022/04/07 11:01:36;;;;;;;6.07;0.90;;;;;;;;;;5013704;28;20201;-67
2022/04/07 11:04:25;;;;;;;7.35;0.93;;;;;;;;;;5013193;28;20202;-68
2022/04/07 11:07:10;;;;;;;6.68;1.27;;;;;;;;;;5012967;28;20199;-68
2022/04/07 11:10:00;;;;;;;5.50;1.05;;;;;;;;;;5027481;28;20261;-68
2022/04/07 11:12:29;;;;;;;9.43;1.25;;;;;;;;;;5027575;28;20507;-67
2022/04/07 11:15:00;;;;;;;4.45;1.00;;;;;;;;;;5023873;28;20232;-67
2022/04/07 11:17:33;;;;;;;7.25;1.25;;;;;;;;;;5020848;28;20190;-69
2022/04/07 11:20:13;;;;;;;5.03;1.23;;;;;;;;;;5020617;28;20174;-68
2022/04/07 11:23:13;;;;;;;6.43;0.82;;;;;;;;;;5026353;28;20185;-68
2022/04/07 11:25:41;;;;;;;5.05;1.02;;;;;;;;;;5024681;28;20210;-68
2022/04/07 11:28:18;;;;;;;7.65;1.08;;;;;;;;;;5024428;28;20182;-68
2022/04/07 11:30:50;;;;;;;7.38;1.30;;;;;;;;;;5024046;28;20205;-68
2022/04/07 11:33:18;;;;;;;4.70;0.82;;;;;;;;;;5026275;28;20509;-68
2022/04/07 11:35:43;;;;;;;8.00;1.08;;;;;;;;;;5024653;28;20190;-68
2022/04/07 11:38:09;;;;;;;6.57;1.38;;;;;;;;;;5025098;28;20192;-67
2022/04/07 11:40:35;;;;;;;6.43;1.17;;;;;;;;;;5023135;28;20213;-67
2022/04/07 11:43:02;;;;;;;3.78;1.23;;;;;;;;;;5026724;28;20522;-67
2022/04/07 11:45:31;;;;;;;7.43;1.30;;;;;;;;;;5021786;28;20206;-68
2022/04/07 11:47:57;;;;;;;7.75;1.00;;;;;;;;;;5025753;28;20193;-72
2022/04/07 11:50:23;;;;;;;4.72;1.20;;;;;;;;;;5021705;28;20602;-70
2022/04/07 11:52:50;;;;;;;6.38;1.02;;;;;;;;;;5020991;28;20182;-72
2022/04/07 11:55:27;;;;;;;8.13;1.30;;;;;;;;;;5026811;28;20245;-71
2022/04/07 11:57:58;;;;;;;8.27;1.38;;;;;;;;;;5024345;28;20769;-69
2022/04/07 12:00:31;;;;;;;6.30;1.60;;;;;;;;;;5021810;28;20186;-70
2022/04/07 12:03:05;;;;;;;6.47;1.13;;;;;;;;;;5024968;28;20193;-69
2022/04/07 12:05:30;;;;;;;7.63;1.45;;;;;;;;;;5024933;28;20277;-70
2022/04/07 12:08:14;;;;;;;12.43;1.23;;;;;;;;;;5024518;28;20186;-68
2022/04/07 12:10:42;;;;;;;4.25;0.93;;;;;;;;;;5019939;28;20226;-68
2022/04/07 12:13:08;;;;;;;8.10;1.70;;;;;;;;;;5023272;28;20193;-69
2022/04/07 12:15:38;;;;;;;8.10;1.30;;;;;;;;;;5023798;28;20178;-68
2022/04/07 12:18:09;;;;;;;9.38;1.73;;;;;;;;;;5026282;28;20182;-68
2022/04/07 12:20:36;;;;;;;12.05;1.92;;;;;;;;;;5024396;28;20189;-68
2022/04/07 12:23:13;;;;;;;8.25;1.25;;;;;;;;;;5023057;28;20190;-70
2022/04/07 12:25:42;;;;;;;11.23;1.70;;;;;;;;;;5025064;28;20292;-68
2022/04/07 12:28:15;;;;;;;15.32;1.92;;;;;;;;;;5023761;28;20174;-68
2022/04/07 12:30:52;;;;;;;9.93;1.45;;;;;;;;;;5023997;28;20217;-68
2022/04/07 12:33:39;;;;;;;17.88;2.00;;;;;;;;;;5028192;28;20290;-68
2022/04/07 12:36:06;;;;;;;5.45;1.10;;;;;;;;;;5026667;28;20688;-68
2022/04/07 12:38:32;;;;;;;12.50;1.65;;;;;;;;;;5029412;28;20170;-67
2022/04/07 12:41:11;;;;;;;9.90;1.80;;;;;;;;;;5024071;28;20662;-67
2022/04/07 12:43:50;;;;;;;9.75;1.38;;;;;;;;;;5027452;28;20945;-68
2022/04/07 12:46:18;;;;;;;8.93;1.45;;;;;;;;;;5026925;28;20178;-68
2022/04/07 12:49:04;;;;;;;8.00;1.60;;;;;;;;;;5029445;28;20178;-67
2022/04/07 12:51:31;;;;;;;11.70;2.08;;;;;;;;;;5028604;28;20758;-68
2022/04/07 12:54:10;;;;;;;10.90;1.17;;;;;;;;;;5028987;28;20177;-68
2022/04/07 12:56:36;;;;;;;7.03;1.52;;;;;;;;;;5017572;28;20182;-68
2022/04/07 12:59:10;;;;;;;6.43;1.45;;;;;;;;;;5020329;28;20681;-68
2022/04/07 13:01:36;;;;;;;12.55;1.77;;;;;;;;;;5014258;28;20565;-70
2022/04/07 13:04:04;;;;;;;7.78;1.55;;;;;;;;;;5023364;28;20217;-68
2022/04/07 13:06:30;;;;;;;6.95;1.10;;;;;;;;;;5014773;28;20190;-68
2022/04/07 13:08:56;;;;;;;7.45;1.45;;;;;;;;;;5020271;28;20190;-68
2022/04/07 13:11:32;;;;;;;7.70;1.10;;;;;;;;;;5025943;28;20178;-68
2022/04/07 13:13:58;;;;;;;9.43;1.63;;;;;;;;;;5025867;28;20543;-68
2022/04/07 13:16:23;;;;;;;8.65;1.60;;;;;;;;;;5021265;28;20225;-67
2022/04/07 13:18:49;;;;;;;12.60;1.45;;;;;;;;;;5027704;28;20178;-66
2022/04/07 13:21:15;;;;;;;5.38;1.33;;;;;;;;;;5026325;28;20201;-67
2022/04/07 13:23:40;;;;;;;4.20;1.42;;;;;;;;;;5024026;28;20540;-67
2022/04/07 13:26:06;;;;;;;7.10;1.02;;;;;;;;;;5022883;28;20186;-68
2022/04/07 13:28:31;;;;;;;5.15;0.88;;;;;;;;;;5029316;28;20189;-67
2022/04/07 13:30:57;;;;;;;9.27;1.25;;;;;;;;;;5022170;28;20202;-67
2022/04/07 13:33:23;;;;;;;8.73;1.60;;;;;;;;;;5029190;28;20653;-67
2022/04/07 13:35:50;;;;;;;3.70;1.23;;;;;;;;;;5028316;28;20220;-67
2022/04/07 13:38:16;;;;;;;9.93;1.33;;;;;;;;;;5022552;28;20194;-67
2022/04/07 13:40:41;;;;;;;11.13;1.35;;;;;;;;;;5028889;28;21027;-67
2022/04/07 13:43:07;;;;;;;12.80;1.83;;;;;;;;;;5019294;28;20190;-67
2022/04/07 13:45:33;;;;;;;6.85;1.40;;;;;;;;;;5022936;28;20229;-67
2022/04/07 13:47:58;;;;;;;7.05;1.30;;;;;;;;;;5021544;28;20190;-67
2022/04/07 13:50:23;;;;;;;5.13;0.85;;;;;;;;;;5025439;28;20170;-67
2022/04/07 13:52:49;;;;;;;6.22;1.00;;;;;;;;;;5024000;28;20660;-67
2022/04/07 13:55:14;;;;;;;6.63;1.33;;;;;;;;;;5023659;28;20544;-67
2022/04/07 13:57:40;;;;;;;7.57;1.40;;;;;;;;;;5023626;28;20500;-67
2022/04/07 14:00:06;;;;;;;8.10;1.63;;;;;;;;;;5023896;28;20240;-67
2022/04/07 14:02:31;;;;;;;7.13;1.05;;;;;;;;;;5022422;28;20190;-67
2022/04/07 14:04:57;;;;;;;8.00;1.15;;;;;;;;;;5021388;28;20621;-67
2022/04/07 14:07:22;;;;;;;6.88;1.20;;;;;;;;;;5022461;28;20614;-68
2022/04/07 14:09:49;;;;;;;4.95;1.02;;;;;;;;;;5023677;28;20660;-67
2022/04/07 14:12:15;;;;;;;5.45;1.00;;;;;;;;;;5021130;28;20244;-68
2022/04/07 14:14:42;;;;;;;8.48;1.30;;;;;;;;;;5026356;28;20223;-68
2022/04/07 14:17:08;;;;;;;8.52;1.52;;;;;;;;;;5023236;28;20193;-68
2022/04/07 14:19:34;;;;;;;7.22;1.25;;;;;;;;;;5024451;28;20551;-68
2022/04/07 14:22:00;;;;;;;6.05;1.40;;;;;;;;;;5024505;28;20186;-68
2022/04/07 14:24:25;;;;;;;4.82;1.20;;;;;;;;;;5025675;28;20190;-68
2022/04/07 14:26:50;;;;;;;10.13;1.60;;;;;;;;;;5024532;28;20266;-68
2022/04/07 14:29:16;;;;;;;7.93;1.30;;;;;;;;;;5024568;28;20170;-68
2022/04/07 14:31:41;;;;;;;9.80;1.65;;;;;;;;;;5024299;28;20643;-68
2022/04/07 14:34:06;;;;;;;9.20;1.80;;;;;;;;;;5027135;28;20236;-67
2022/04/07 14:36:34;;;;;;;12.82;1.92;;;;;;;;;;5026291;28;20170;-69
2022/04/07 14:38:59;;;;;;;10.68;1.50;;;;;;;;;;5019842;28;20573;-68
2022/04/07 14:41:25;;;;;;;5.90;1.30;;;;;;;;;;5019226;28;20186;-68
2022/04/07 14:43:50;;;;;;;6.53;1.80;;;;;;;;;;5022045;28;20211;-68